createdAt,value
2019-05-25T00:02:03.750Z,32.90
2019-05-25T00:07:07.911Z,42.30
2019-05-25T00:09:40.964Z,36.23
2019-05-25T00:12:13.583Z,27.07
2019-05-25T00:14:46.650Z,34.83
2019-05-25T00:17:20.019Z,36.55
2019-05-25T00:19:52.507Z,31.42
2019-05-25T00:24:56.719Z,40.45
2019-05-25T00:27:29.306Z,36.35
2019-05-25T00:30:02.121Z,32.53
2019-05-25T00:32:36.717Z,38.78
2019-05-25T00:35:09.956Z,44.77
2019-05-25T00:37:43.299Z,42.60
2019-05-25T00:42:49.209Z,44.67
2019-05-25T00:45:31.708Z,37.93
2019-05-25T00:48:05.303Z,30.10
2019-05-25T00:50:38.420Z,13.88
2019-05-25T00:53:11.106Z,40.85
2019-05-25T00:55:43.989Z,46.83
2019-05-25T00:58:16.391Z,45.85
2019-05-25T01:00:49.022Z,18.95
2019-05-25T01:03:21.500Z,33.58
2019-05-25T01:05:54.478Z,29.20
2019-05-25T01:08:27.278Z,34.33
2019-05-25T01:13:31.316Z,33.55
2019-05-25T01:16:04.068Z,28.07
2019-05-25T01:18:36.624Z,34.10
2019-05-25T01:21:09.740Z,43.23
2019-05-25T01:23:42.378Z,36.20
2019-05-25T01:26:15.631Z,25.45
2019-05-25T01:28:48.335Z,33.13
2019-05-25T01:31:21.297Z,28.80
2019-05-25T01:33:54.804Z,26.62
2019-05-25T01:36:37.766Z,25.23
2019-05-25T01:39:10.613Z,19.27
2019-05-25T01:41:44.868Z,21.80
2019-05-25T01:44:17.435Z,29.42
2019-05-25T01:46:50.338Z,31.20
2019-05-25T01:49:22.804Z,7.92
2019-05-25T01:51:55.416Z,27.22
2019-05-25T01:54:27.639Z,26.07
2019-05-25T01:57:00.585Z,32.05
2019-05-25T01:59:33.717Z,31.57
2019-05-25T02:02:06.699Z,29.35
2019-05-25T02:04:39.371Z,31.62
2019-05-25T02:07:12.786Z,22.55
2019-05-25T02:09:45.341Z,20.62
2019-05-25T02:12:17.647Z,24.57
2019-05-25T02:14:50.227Z,8.10
2019-05-25T02:17:22.857Z,33.00
2019-05-25T02:20:02.088Z,31.33
2019-05-25T02:22:37.279Z,31.33
2019-05-25T02:25:17.563Z,31.93
2019-05-25T02:27:44.182Z,27.02
2019-05-25T02:30:19.485Z,26.68
2019-05-25T02:32:52.551Z,24.92
2019-05-25T02:38:00.514Z,33.30
2019-05-25T02:40:33.112Z,26.37
2019-05-25T02:43:08.311Z,29.82
2019-05-25T02:45:41.423Z,30.72
2019-05-25T02:48:14.585Z,29.15
2019-05-25T02:53:19.099Z,29.25
2019-05-25T02:55:51.436Z,24.87
2019-05-25T02:58:24.568Z,80.75
2019-05-25T03:00:59.372Z,22.52
2019-05-25T03:03:32.300Z,23.50
2019-05-25T03:06:08.036Z,46.90
2019-05-25T03:08:41.654Z,23.22
2019-05-25T03:11:14.145Z,26.93
2019-05-25T03:13:48.121Z,27.70
2019-05-25T03:16:20.623Z,32.73
2019-05-25T03:18:53.797Z,29.77
2019-05-25T03:21:26.446Z,26.97
2019-05-25T03:23:59.185Z,30.08
2019-05-25T03:26:31.617Z,23.55
2019-05-25T03:29:04.569Z,26.37
2019-05-25T03:31:41.179Z,30.45
2019-05-25T03:34:16.305Z,31.50
2019-05-25T03:36:49.468Z,36.15
2019-05-25T03:39:25.979Z,27.77
2019-05-25T03:41:58.451Z,24.37
2019-05-25T03:47:02.881Z,25.60
2019-05-25T03:49:35.807Z,27.20
2019-05-25T03:52:08.861Z,28.60
2019-05-25T03:54:41.830Z,25.30
2019-05-25T03:57:15.621Z,28.83
2019-05-25T03:59:48.440Z,26.50
2019-05-25T04:02:21.182Z,25.02
2019-05-25T04:04:56.649Z,30.90
2019-05-25T04:07:29.727Z,26.20
2019-05-25T04:10:02.905Z,22.90
2019-05-25T04:12:35.457Z,23.60
2019-05-25T04:15:09.436Z,24.85
2019-05-25T04:17:42.283Z,33.75
2019-05-25T04:20:15.292Z,23.45
2019-05-25T04:22:48.019Z,29.52
2019-05-25T04:25:20.971Z,25.57
2019-05-25T04:30:25.384Z,22.75
2019-05-25T04:32:57.878Z,19.40
2019-05-25T04:38:02.016Z,7.47
2019-05-25T04:40:37.869Z,19.73
2019-05-25T04:43:11.289Z,23.65
2019-05-25T04:45:44.372Z,31.95
2019-05-25T04:48:31.075Z,18.57
2019-05-25T04:51:04.027Z,21.30
2019-05-25T04:53:37.055Z,20.85
2019-05-25T04:56:09.785Z,22.40
2019-05-25T04:58:42.769Z,18.32
2019-05-25T05:01:15.807Z,23.52
2019-05-25T05:03:49.315Z,25.50
2019-05-25T05:06:21.995Z,30.17
2019-05-25T05:08:54.566Z,15.90
2019-05-25T05:13:59.642Z,23.98
2019-05-25T05:16:32.657Z,19.23
2019-05-25T05:19:05.487Z,16.32
2019-05-25T05:24:11.661Z,24.32
2019-05-25T05:26:55.812Z,20.82
2019-05-25T05:29:21.830Z,18.17
2019-05-25T05:31:54.695Z,18.85
2019-05-25T05:34:27.503Z,17.40
2019-05-25T05:37:02.254Z,17.98
2019-05-25T05:39:54.810Z,17.45
2019-05-25T05:42:29.431Z,21.35
2019-05-25T05:45:04.147Z,17.77
2019-05-25T05:47:38.445Z,18.12
2019-05-25T05:50:12.579Z,17.45
2019-05-25T05:52:45.482Z,21.82
2019-05-25T05:55:20.360Z,20.97
2019-05-25T05:57:54.125Z,19.77
2019-05-25T06:00:27.153Z,22.13
2019-05-25T06:02:59.726Z,22.05
2019-05-25T06:05:32.466Z,22.27
2019-05-25T06:08:06.521Z,23.42
2019-05-25T06:10:39.446Z,28.60
2019-05-25T06:13:12.327Z,32.35
2019-05-25T06:18:18.471Z,27.37
2019-05-25T06:20:51.642Z,22.22
2019-05-25T06:23:25.506Z,24.20
2019-05-25T06:25:57.866Z,22.55
2019-05-25T06:28:30.403Z,23.07
2019-05-25T06:31:02.729Z,22.02
2019-05-25T06:33:35.274Z,22.30
2019-05-25T06:36:07.663Z,21.37
2019-05-25T06:38:40.426Z,21.95
2019-05-25T06:41:13.011Z,17.98
2019-05-25T06:43:47.082Z,21.48
2019-05-25T06:46:19.722Z,23.40
2019-05-25T06:48:53.109Z,20.30
2019-05-25T06:51:26.293Z,22.58
2019-05-25T06:53:59.238Z,19.98
2019-05-25T06:56:32.090Z,19.62
2019-05-25T06:59:05.033Z,21.95
2019-05-25T07:01:37.750Z,22.20
2019-05-25T07:06:42.699Z,26.12
2019-05-25T07:09:16.085Z,26.52
2019-05-25T07:11:50.627Z,22.82
2019-05-25T07:14:23.657Z,22.25
2019-05-25T07:16:56.543Z,19.15
2019-05-25T07:19:29.785Z,19.62
2019-05-25T07:24:35.384Z,21.27
2019-05-25T07:27:09.881Z,23.62
2019-05-25T07:29:42.751Z,19.07
2019-05-25T07:32:18.058Z,34.08
2019-05-25T07:34:51.384Z,20.08
2019-05-25T07:37:24.695Z,22.50
2019-05-25T07:39:57.037Z,26.75
2019-05-25T07:42:29.697Z,20.30
2019-05-25T07:45:02.685Z,19.57
2019-05-25T07:50:10.402Z,24.12
2019-05-25T07:52:43.576Z,22.42
2019-05-25T07:55:16.179Z,25.20
2019-05-25T07:57:49.203Z,16.35
2019-05-25T08:00:21.832Z,18.95
2019-05-25T08:05:29.624Z,21.00
2019-05-25T08:08:03.279Z,18.48
2019-05-25T08:10:36.228Z,20.95
2019-05-25T08:13:09.692Z,23.30
2019-05-25T08:15:42.455Z,17.85
2019-05-25T08:20:47.703Z,20.52
2019-05-25T08:23:20.765Z,20.12
2019-05-25T08:25:53.619Z,21.93
2019-05-25T08:28:32.797Z,22.60
2019-05-25T08:31:01.429Z,22.30
2019-05-25T08:33:35.353Z,19.60
2019-05-25T08:36:07.782Z,24.55
2019-05-25T08:41:11.629Z,17.60
2019-05-25T08:43:44.551Z,20.50
2019-05-25T08:46:17.059Z,17.20
2019-05-25T08:48:50.041Z,17.48
2019-05-25T08:53:53.855Z,19.52
2019-05-25T08:56:26.917Z,20.15
2019-05-25T08:59:02.275Z,21.12
2019-05-25T09:01:34.740Z,18.42
2019-05-25T09:04:08.692Z,20.35
2019-05-25T09:06:43.016Z,18.85
2019-05-25T09:12:10.658Z,18.73
2019-05-25T09:14:44.509Z,23.12
2019-05-25T09:17:17.690Z,22.42
2019-05-25T09:19:52.852Z,18.52
2019-05-25T09:22:26.627Z,20.50
2019-05-25T09:25:00.166Z,25.32
2019-05-25T09:27:32.974Z,21.02
2019-05-25T09:30:08.883Z,21.37
2019-05-25T09:32:41.926Z,14.25
2019-05-25T09:35:15.750Z,19.75
2019-05-25T09:37:48.060Z,16.75
2019-05-25T09:40:20.778Z,11.75
2019-05-25T09:45:24.644Z,10.72
2019-05-25T09:47:57.007Z,24.27
2019-05-25T09:53:01.131Z,17.15
2019-05-25T09:58:05.549Z,19.55
2019-05-25T10:00:40.263Z,16.93
2019-05-25T10:03:13.441Z,17.52
2019-05-25T10:05:47.517Z,17.07
2019-05-25T10:08:21.141Z,22.20
2019-05-25T10:10:55.212Z,15.32
2019-05-25T10:13:27.793Z,25.23
2019-05-25T10:16:00.789Z,30.10
2019-05-25T10:21:06.760Z,24.02
2019-05-25T10:23:38.847Z,29.25
2019-05-25T10:26:11.365Z,25.15
2019-05-25T10:28:45.089Z,8.95
2019-05-25T10:31:17.867Z,31.95
2019-05-25T10:36:22.721Z,22.20
2019-05-25T10:38:55.255Z,37.93
2019-05-25T10:41:36.797Z,34.18
2019-05-25T10:44:11.961Z,32.67
2019-05-25T10:46:45.282Z,38.92
2019-05-25T10:49:18.891Z,31.40
2019-05-25T10:51:53.203Z,29.45
2019-05-25T10:54:25.950Z,23.25
2019-05-25T10:56:59.048Z,32.23
2019-05-25T10:59:31.664Z,39.40
2019-05-25T11:02:06.608Z,35.45
2019-05-25T11:04:39.651Z,54.85
2019-05-25T11:07:12.572Z,46.00
2019-05-25T11:09:45.826Z,55.15
2019-05-25T11:12:18.256Z,30.77
2019-05-25T11:14:50.589Z,24.35
2019-05-25T11:17:23.569Z,45.05
2019-05-25T11:19:56.589Z,82.17
2019-05-25T11:22:29.646Z,89.30
2019-05-25T11:25:01.934Z,28.98
2019-05-25T11:27:34.456Z,38.17
2019-05-25T11:30:10.015Z,49.65
2019-05-25T11:32:43.720Z,56.20
2019-05-25T11:35:17.559Z,56.08
2019-05-25T11:37:50.407Z,31.62
2019-05-25T11:40:24.250Z,28.27
2019-05-25T11:42:57.676Z,30.08
2019-05-25T11:45:31.079Z,23.10
2019-05-25T11:48:04.543Z,29.72
2019-05-25T11:50:38.475Z,15.45
2019-05-25T11:53:11.879Z,13.80
2019-05-25T11:55:44.136Z,24.20
2019-05-25T11:58:16.865Z,18.48
2019-05-25T12:03:22.648Z,35.08
2019-05-25T12:05:54.924Z,37.63
2019-05-25T12:10:58.855Z,34.05
2019-05-25T12:13:32.188Z,35.28
2019-05-25T12:16:05.089Z,18.17
2019-05-25T12:21:08.972Z,27.25
2019-05-25T12:23:45.231Z,17.42
2019-05-25T12:26:18.004Z,23.65
2019-05-25T12:28:52.767Z,23.02
2019-05-25T12:31:25.316Z,18.02
2019-05-25T12:33:58.017Z,14.25
2019-05-25T12:36:31.731Z,13.40
2019-05-25T12:39:06.226Z,20.77
2019-05-25T12:41:39.943Z,22.22
2019-05-25T12:44:14.757Z,12.07
2019-05-25T12:46:47.099Z,14.47
2019-05-25T12:49:26.220Z,18.67
2019-05-25T12:52:00.239Z,16.82
2019-05-25T12:54:33.853Z,14.38
2019-05-25T12:57:06.460Z,13.93
2019-05-25T13:02:17.162Z,23.50
2019-05-25T13:04:50.394Z,13.38
2019-05-25T13:07:23.075Z,10.10
2019-05-25T13:09:57.632Z,10.80
2019-05-25T13:12:30.177Z,14.10
2019-05-25T13:15:04.298Z,11.55
2019-05-25T13:17:38.300Z,13.20
2019-05-25T13:20:10.986Z,21.93
2019-05-25T13:22:43.523Z,14.28
2019-05-25T13:25:16.611Z,25.27
2019-05-25T13:27:49.079Z,28.83
2019-05-25T13:32:53.101Z,12.10
2019-05-25T13:35:26.177Z,17.42
2019-05-25T13:40:30.968Z,19.32
2019-05-25T13:43:03.465Z,10.58
2019-05-25T13:45:36.285Z,28.40
2019-05-25T13:50:41.066Z,21.27
2019-05-25T13:53:13.462Z,21.10
2019-05-25T13:55:46.208Z,23.27
2019-05-25T14:00:50.936Z,14.60
2019-05-25T14:05:58.093Z,15.30
2019-05-25T14:08:31.257Z,26.37
2019-05-25T14:11:04.157Z,11.78
2019-05-25T14:13:38.407Z,20.48
2019-05-25T14:16:11.585Z,23.98
2019-05-25T14:18:45.233Z,16.00
2019-05-25T14:21:17.920Z,28.70
2019-05-25T14:23:50.722Z,20.60
2019-05-25T14:26:25.711Z,22.62
2019-05-25T14:29:01.746Z,25.95
2019-05-25T14:31:44.927Z,30.72
2019-05-25T14:34:10.298Z,27.60
2019-05-25T14:39:17.193Z,29.60
2019-05-25T14:41:51.391Z,34.23
2019-05-25T14:44:24.713Z,30.65
2019-05-25T14:46:58.452Z,33.08
2019-05-25T14:49:36.827Z,30.55
2019-05-25T14:52:12.174Z,34.48
2019-05-25T14:54:45.231Z,35.15
2019-05-25T14:59:50.210Z,35.98
2019-05-25T15:02:23.131Z,35.38
2019-05-25T15:07:27.844Z,35.55
2019-05-25T15:10:00.478Z,42.30
2019-05-25T15:12:33.025Z,36.48
2019-05-25T15:15:06.564Z,37.38
2019-05-25T15:17:40.987Z,41.70
2019-05-25T15:20:13.460Z,41.23
2019-05-25T15:22:47.049Z,37.90
2019-05-25T15:25:20.814Z,49.25
2019-05-25T15:27:53.777Z,38.40
2019-05-25T15:30:26.819Z,43.80
2019-05-25T15:33:01.414Z,50.23
2019-05-25T15:35:35.192Z,44.42
2019-05-25T15:40:39.973Z,42.20
2019-05-25T15:43:13.213Z,49.85
2019-05-25T15:45:45.911Z,49.77
2019-05-25T15:48:21.185Z,49.53
2019-05-25T15:50:53.764Z,54.45
2019-05-25T15:53:26.492Z,48.68
2019-05-25T15:55:59.831Z,57.17
2019-05-25T15:58:45.432Z,52.55
2019-05-25T16:01:18.567Z,56.05
2019-05-25T16:04:11.504Z,59.53
2019-05-25T16:06:47.718Z,56.30
2019-05-25T16:09:20.707Z,62.15
2019-05-25T16:11:54.299Z,56.65
2019-05-25T16:14:27.396Z,57.35
2019-05-25T16:17:00.273Z,56.13
2019-05-25T16:19:35.726Z,57.88
2019-05-25T16:22:09.403Z,59.65
2019-05-25T16:24:47.073Z,61.02
2019-05-25T16:27:19.753Z,221.55
2019-05-25T16:29:53.813Z,90.62
2019-05-25T16:32:26.998Z,101.65
2019-05-25T16:35:00.439Z,91.97
2019-05-25T16:37:34.400Z,93.75
2019-05-25T16:40:08.485Z,506.90
2019-05-25T16:42:41.383Z,297.40
2019-05-25T16:47:45.487Z,556.78
2019-05-25T16:52:49.544Z,341.73
2019-05-25T16:57:53.468Z,150.75
2019-05-25T17:00:30.509Z,104.75
2019-05-25T17:03:03.339Z,120.42
2019-05-25T17:05:36.343Z,455.98
2019-05-25T17:08:08.916Z,158.52
2019-05-25T17:10:41.321Z,144.93
2019-05-25T17:13:13.708Z,75.83
2019-05-25T17:15:46.366Z,135.72
2019-05-25T17:18:19.386Z,107.50
2019-05-25T17:20:52.275Z,105.85
2019-05-25T17:25:56.773Z,59.65
2019-05-25T17:28:29.626Z,59.80
2019-05-25T17:31:02.892Z,71.70
2019-05-25T17:33:45.375Z,62.45
2019-05-25T17:36:12.803Z,45.55
2019-05-25T17:38:42.975Z,50.38
2019-05-25T17:41:15.705Z,65.85
2019-05-25T17:43:48.449Z,67.72
2019-05-25T17:46:21.475Z,70.97
2019-05-25T17:51:26.138Z,41.77
2019-05-25T17:53:58.665Z,55.55
2019-05-25T17:56:31.649Z,39.80
2019-05-25T18:01:35.828Z,41.70
2019-05-25T18:04:08.465Z,43.70
2019-05-25T18:09:12.756Z,35.92
2019-05-25T18:11:45.325Z,53.95
2019-05-25T18:14:18.010Z,30.85
2019-05-25T18:16:50.882Z,33.98
2019-05-25T18:19:23.273Z,37.05
2019-05-25T18:21:58.952Z,33.78
2019-05-25T18:24:30.570Z,41.77
2019-05-25T18:27:04.203Z,31.35
2019-05-25T18:29:38.858Z,33.83
2019-05-25T18:32:11.270Z,28.60
2019-05-25T18:34:43.860Z,27.45
2019-05-25T18:37:16.783Z,30.55
2019-05-25T18:39:49.106Z,28.27
2019-05-25T18:42:21.779Z,30.32
2019-05-25T18:44:54.167Z,27.77
2019-05-25T18:47:26.636Z,23.77
2019-05-25T18:49:59.124Z,28.85
2019-05-25T18:52:32.397Z,25.82
2019-05-25T18:55:06.236Z,31.75
2019-05-25T18:57:40.389Z,25.32
2019-05-25T19:00:13.306Z,29.77
2019-05-25T19:02:46.261Z,29.20
2019-05-25T19:05:18.689Z,28.65
2019-05-25T19:07:51.504Z,27.07
2019-05-25T19:10:24.037Z,32.98
2019-05-25T19:12:56.611Z,27.25
2019-05-25T19:18:01.062Z,26.80
2019-05-25T19:20:34.267Z,24.90
2019-05-25T19:25:38.224Z,26.93
2019-05-25T19:28:10.924Z,28.92
2019-05-25T19:30:43.741Z,37.20
2019-05-25T19:35:49.188Z,29.60
2019-05-25T19:38:22.908Z,29.55
2019-05-25T19:40:55.887Z,28.92
2019-05-25T19:43:28.443Z,28.70
2019-05-25T19:48:32.730Z,29.42
2019-05-25T19:53:37.879Z,29.43
2019-05-25T19:56:10.773Z,30.92
2019-05-25T20:01:14.895Z,28.75
2019-05-25T20:06:19.493Z,34.58
2019-05-25T20:11:23.552Z,26.75
2019-05-25T20:14:30.900Z,26.87
2019-05-25T20:17:04.014Z,30.48
2019-05-25T20:22:09.333Z,24.80
2019-05-25T20:24:41.851Z,30.75
2019-05-25T20:29:45.648Z,27.65
2019-05-25T20:32:18.306Z,27.27
2019-05-25T20:34:51.087Z,25.43
2019-05-25T20:37:23.979Z,24.18
2019-05-25T20:39:57.583Z,32.60
2019-05-25T20:42:30.359Z,23.62
2019-05-25T20:45:02.682Z,29.45
2019-05-25T20:47:35.194Z,36.15
2019-05-25T20:50:11.561Z,27.25
2019-05-25T20:52:44.451Z,30.68
2019-05-25T20:55:16.857Z,29.82
2019-05-25T20:57:49.966Z,29.48
2019-05-25T21:00:24.305Z,28.65
2019-05-25T21:03:05.822Z,32.33
2019-05-25T21:05:31.089Z,31.33
2019-05-25T21:08:03.889Z,25.57
2019-05-25T21:10:36.999Z,35.43
2019-05-25T21:15:41.946Z,28.42
2019-05-25T21:18:15.217Z,27.52
2019-05-25T21:20:47.822Z,22.95
2019-05-25T21:23:20.749Z,27.90
2019-05-25T21:25:53.232Z,25.50
2019-05-25T21:28:26.075Z,29.37
2019-05-25T21:33:30.514Z,34.67
2019-05-25T21:36:08.657Z,28.30
2019-05-25T21:38:37.438Z,31.50
2019-05-25T21:41:10.318Z,29.80
2019-05-25T21:43:42.688Z,30.50
2019-05-25T21:46:15.247Z,25.57
2019-05-25T21:48:47.637Z,27.22
2019-05-25T21:51:20.264Z,25.08
2019-05-25T21:56:24.082Z,25.05
2019-05-25T21:58:56.520Z,29.57
2019-05-25T22:01:29.137Z,28.90
2019-05-25T22:04:01.724Z,26.33
2019-05-25T22:06:34.229Z,33.13
2019-05-25T22:09:08.507Z,29.07
2019-05-25T22:11:41.403Z,31.80
2019-05-25T22:14:14.063Z,23.52
2019-05-25T22:16:47.614Z,25.88
2019-05-25T22:19:20.897Z,28.65
2019-05-25T22:21:53.567Z,22.75
2019-05-25T22:24:26.727Z,30.70
2019-05-25T22:27:01.663Z,23.90
2019-05-25T22:29:34.328Z,28.45
2019-05-25T22:34:38.735Z,27.22
2019-05-25T22:37:11.698Z,26.35
2019-05-25T22:39:44.586Z,24.32
2019-05-25T22:42:17.529Z,29.15
2019-05-25T22:44:50.159Z,30.65
2019-05-25T22:47:23.803Z,27.35
2019-05-25T22:49:56.989Z,28.95
2019-05-25T22:52:29.175Z,24.55
2019-05-25T22:55:01.994Z,30.40
2019-05-25T22:57:34.744Z,32.90
2019-05-25T23:00:11.769Z,31.37
2019-05-25T23:02:45.061Z,34.98
2019-05-25T23:05:18.044Z,29.12
2019-05-25T23:07:51.783Z,36.23
2019-05-25T23:10:24.706Z,33.80
2019-05-25T23:12:57.176Z,29.57
2019-05-25T23:18:01.413Z,34.30
2019-05-25T23:23:07.489Z,30.10
2019-05-25T23:25:39.867Z,32.38
2019-05-25T23:28:19.751Z,47.13
2019-05-25T23:30:52.427Z,37.58
2019-05-25T23:33:25.454Z,40.23
2019-05-25T23:35:57.944Z,35.15
2019-05-25T23:38:30.320Z,37.38
2019-05-25T23:41:03.351Z,42.15
2019-05-25T23:43:35.656Z,31.33
2019-05-25T23:46:08.056Z,38.40
2019-05-25T23:48:40.515Z,34.63
2019-05-25T23:51:13.456Z,33.25
2019-05-25T23:53:46.372Z,40.15
2019-05-25T23:56:19.105Z,41.00
2019-05-25T23:58:52.639Z,41.28
